Time;durP1;ratioP1;P1;durP2;ratioP2;P2;SDS_P1;SDS_P2;PMS_P1;PMS_P2;Temp;Humidity;BMP_temperature;BMP_pressure;BME280_temperature;BME280_humidity;BME280_pressure;Samples;Min_cycle;Max_cycle;Signal;HPM_P1;HPM_P2
2022/11/17 00:01:11;;;;;;;44.17;16.25;;;6.90;99.90;;;;;;5015925;28;20037;-86
2022/11/17 00:03:37;;;;;;;40.60;15.40;;;6.90;99.90;;;;;;5000193;28;20455;-86
2022/11/17 00:06:04;;;;;;;44.08;15.85;;;6.90;99.90;;;;;;4980157;28;20124;-86
2022/11/17 00:08:30;;;;;;;40.85;16.45;;;6.90;99.90;;;;;;5045634;28;20445;-86
2022/11/17 00:11:01;;;;;;;47.47;16.70;;;6.90;99.90;;;;;;5028862;28;20051;-86
2022/11/17 00:16:13;;;;;;;42.30;15.77;;;7.00;99.90;;;;;;5018720;28;20405;-86
2022/11/17 00:21:25;;;;;;;42.83;16.30;;;6.90;99.90;;;;;;5010734;28;20033;-85
2022/11/17 00:23:52;;;;;;;41.40;15.43;;;6.90;99.90;;;;;;5013419;28;20102;-86
2022/11/17 00:26:21;;;;;;;38.05;15.15;;;6.90;99.90;;;;;;5015756;28;20048;-87
2022/11/17 00:28:51;;;;;;;44.75;16.02;;;6.90;99.90;;;;;;5016329;28;20029;-86
2022/11/17 00:34:03;;;;;;;37.67;16.52;;;6.80;99.90;;;;;;5018137;28;20102;-85
2022/11/17 00:36:31;;;;;;;37.47;15.80;;;6.80;99.90;;;;;;5016116;28;20044;-84
2022/11/17 00:38:57;;;;;;;35.75;15.38;;;6.70;99.90;;;;;;5015733;28;20040;-86
2022/11/17 00:41:22;;;;;;;38.58;15.25;;;6.70;99.90;;;;;;5012932;28;20041;-85
2022/11/17 00:43:48;;;;;;;42.33;16.73;;;6.70;99.90;;;;;;4979337;28;20030;-85
2022/11/17 00:46:14;;;;;;;37.50;15.77;;;6.70;99.90;;;;;;4984580;28;20037;-84
2022/11/17 00:48:40;;;;;;;35.95;15.40;;;6.70;99.90;;;;;;4996645;28;20037;-85
2022/11/17 00:51:06;;;;;;;33.50;15.35;;;6.70;99.90;;;;;;5014736;28;20104;-85
2022/11/17 00:53:31;;;;;;;31.27;14.52;;;6.70;99.90;;;;;;5015539;28;20036;-87
2022/11/17 00:55:57;;;;;;;25.45;12.77;;;6.70;99.90;;;;;;5030838;28;20041;-86
2022/11/17 00:58:23;;;;;;;29.65;13.70;;;6.60;99.90;;;;;;5012607;28;20037;-85
2022/11/17 01:00:49;;;;;;;34.28;15.20;;;6.70;99.90;;;;;;5012261;28;20077;-85
2022/11/17 01:03:14;;;;;;;34.90;14.75;;;6.60;99.90;;;;;;5012306;28;20048;-85
2022/11/17 01:05:40;;;;;;;27.92;13.75;;;6.60;99.90;;;;;;5011600;28;20024;-84
2022/11/17 01:08:06;;;;;;;29.25;13.90;;;6.60;99.90;;;;;;5008307;28;20095;-84
2022/11/17 01:10:34;;;;;;;29.48;14.45;;;6.60;99.90;;;;;;4991973;28;20029;-85
2022/11/17 01:13:00;;;;;;;27.63;13.68;;;6.60;99.90;;;;;;4963146;28;20492;-85
2022/11/17 01:15:25;;;;;;;31.17;15.38;;;6.60;99.90;;;;;;4997447;28;20112;-85
2022/11/17 01:17:51;;;;;;;31.08;14.50;;;6.60;99.90;;;;;;5015443;28;20041;-86
2022/11/17 01:20:17;;;;;;;32.42;14.80;;;6.60;99.90;;;;;;5013483;28;20051;-84
2022/11/17 01:22:43;;;;;;;27.70;13.57;;;6.60;99.90;;;;;;4991926;28;20041;-87
2022/11/17 01:25:09;;;;;;;28.70;13.95;;;6.60;99.90;;;;;;4998200;28;20526;-85
2022/11/17 01:27:35;;;;;;;29.95;13.52;;;6.60;99.90;;;;;;5011825;28;20037;-83
2022/11/17 01:30:01;;;;;;;29.50;14.48;;;6.60;99.90;;;;;;4995171;28;20077;-84
2022/11/17 01:32:27;;;;;;;29.55;13.73;;;6.60;99.90;;;;;;4994026;28;20038;-84
2022/11/17 01:34:52;;;;;;;25.05;12.80;;;6.60;99.90;;;;;;5011205;28;20040;-85
2022/11/17 01:37:18;;;;;;;25.67;12.73;;;6.60;99.90;;;;;;4998366;28;20040;-85
2022/11/17 01:39:45;;;;;;;28.08;14.48;;;6.60;99.90;;;;;;5014956;28;20043;-85
2022/11/17 01:42:15;;;;;;;26.58;13.32;;;6.50;99.90;;;;;;5026299;28;20037;-85
2022/11/17 01:44:57;;;;;;;29.67;13.77;;;6.50;99.90;;;;;;5027806;28;20134;-86
2022/11/17 01:47:35;;;;;;;28.70;13.82;;;6.50;99.90;;;;;;5034577;28;20029;-84
2022/11/17 01:50:07;;;;;;;33.72;15.98;;;6.50;99.90;;;;;;5030810;28;20032;-85
2022/11/17 01:52:34;;;;;;;35.22;14.98;;;6.50;99.90;;;;;;5010755;28;20033;-85
2022/11/17 01:55:02;;;;;;;33.05;15.63;;;6.50;99.90;;;;;;5011052;28;20508;-84
2022/11/17 01:57:43;;;;;;;36.30;14.88;;;6.50;99.90;;;;;;5004706;28;20068;-84
2022/11/17 02:00:10;;;;;;;31.58;13.93;;;6.50;99.90;;;;;;5011715;28;20029;-85
2022/11/17 02:02:38;;;;;;;30.88;13.90;;;6.50;99.90;;;;;;5005478;28;20033;-86
2022/11/17 02:05:21;;;;;;;26.70;14.05;;;6.50;99.90;;;;;;5014946;28;20059;-85
2022/11/17 02:07:51;;;;;;;30.52;13.95;;;6.50;99.90;;;;;;5009154;28;20026;-86
2022/11/17 02:10:16;;;;;;;28.60;13.60;;;6.50;99.90;;;;;;4997364;28;20025;-88
2022/11/17 02:12:44;;;;;;;30.55;13.80;;;6.40;99.90;;;;;;4981468;28;20040;-85
2022/11/17 02:15:10;;;;;;;28.08;13.35;;;6.40;99.90;;;;;;4997203;28;20071;-85
2022/11/17 02:17:41;;;;;;;28.13;14.35;;;6.30;99.90;;;;;;5000982;28;20202;-85
2022/11/17 02:20:12;;;;;;;31.73;14.45;;;6.30;99.90;;;;;;5041636;28;20474;-85
2022/11/17 02:23:14;;;;;;;25.73;12.82;;;6.20;99.90;;;;;;5007728;28;20124;-84
2022/11/17 02:25:52;;;;;;;29.85;13.25;;;6.20;99.90;;;;;;5004496;28;20060;-84
2022/11/17 02:28:27;;;;;;;27.55;12.90;;;6.20;99.90;;;;;;5030439;28;20029;-85
2022/11/17 02:31:10;;;;;;;29.92;14.68;;;6.20;99.90;;;;;;5024312;28;20033;-85
2022/11/17 02:33:41;;;;;;;28.55;12.98;;;6.20;99.90;;;;;;4997150;28;20132;-85
2022/11/17 02:36:30;;;;;;;28.65;13.30;;;6.20;99.90;;;;;;5025513;28;20382;-83
2022/11/17 02:39:23;;;;;;;26.58;13.18;;;6.10;99.90;;;;;;5029949;28;20110;-84
2022/11/17 02:42:16;;;;;;;27.17;12.77;;;6.20;99.90;;;;;;5010310;28;20037;-85
2022/11/17 02:45:02;;;;;;;26.80;12.10;;;6.20;99.90;;;;;;5007822;28;20037;-84
2022/11/17 02:47:31;;;;;;;27.30;12.57;;;6.20;99.90;;;;;;5013463;28;20037;-84
2022/11/17 02:50:07;;;;;;;25.13;12.13;;;6.30;99.90;;;;;;5010279;28;20044;-87
2022/11/17 02:52:33;;;;;;;25.42;12.65;;;6.20;99.90;;;;;;5014020;28;20080;-86
2022/11/17 02:55:04;;;;;;;27.10;12.63;;;6.20;99.90;;;;;;5013244;28;20033;-85
2022/11/17 02:57:33;;;;;;;24.42;11.55;;;6.20;99.90;;;;;;5026058;28;20087;-84
2022/11/17 03:00:07;;;;;;;30.27;12.48;;;6.10;99.90;;;;;;4978093;28;20045;-85
2022/11/17 03:02:53;;;;;;;28.05;12.55;;;6.10;99.90;;;;;;5045273;28;20060;-85
2022/11/17 03:05:51;;;;;;;28.42;13.10;;;6.10;99.90;;;;;;5006440;28;20131;-85
2022/11/17 03:08:25;;;;;;;28.00;12.90;;;6.10;99.90;;;;;;5013663;28;20140;-85
2022/11/17 03:11:01;;;;;;;29.40;12.75;;;6.10;99.90;;;;;;5007805;28;20036;-85
2022/11/17 03:13:50;;;;;;;30.83;14.27;;;6.20;99.90;;;;;;5004527;28;20056;-85
2022/11/17 03:16:25;;;;;;;30.20;13.38;;;6.10;99.90;;;;;;5026598;28;20029;-84
2022/11/17 03:19:05;;;;;;;33.67;14.20;;;6.20;99.90;;;;;;5030829;28;20486;-84
2022/11/17 03:21:40;;;;;;;29.35;14.18;;;6.10;99.90;;;;;;5021164;28;20026;-85
2022/11/17 03:24:32;;;;;;;27.95;13.15;;;6.20;99.90;;;;;;5018401;28;20091;-87
2022/11/17 03:27:08;;;;;;;32.75;13.82;;;6.20;99.90;;;;;;5028649;28;20037;-84
2022/11/17 03:29:39;;;;;;;32.13;13.40;;;6.10;99.90;;;;;;5047431;28;20493;-85
2022/11/17 03:32:06;;;;;;;31.15;13.60;;;6.10;99.90;;;;;;5029123;28;20061;-86
2022/11/17 03:34:41;;;;;;;32.38;13.65;;;6.10;99.90;;;;;;5013888;28;20654;-84
2022/11/17 03:37:09;;;;;;;30.55;13.75;;;6.10;99.90;;;;;;5020120;28;20041;-86
2022/11/17 03:39:46;;;;;;;27.63;12.73;;;6.10;99.90;;;;;;5037721;28;20025;-83
2022/11/17 03:42:17;;;;;;;34.40;13.77;;;6.10;99.90;;;;;;5030192;28;20025;-86
2022/11/17 03:44:52;;;;;;;28.55;12.95;;;6.10;99.90;;;;;;5012936;28;20040;-84
2022/11/17 03:47:21;;;;;;;29.40;13.35;;;6.10;99.90;;;;;;5044642;28;20540;-86
2022/11/17 03:50:02;;;;;;;29.48;12.60;;;6.10;99.90;;;;;;4997344;28;20030;-87
2022/11/17 03:52:29;;;;;;;30.67;12.75;;;6.10;99.90;;;;;;5028627;28;20126;-86
2022/11/17 03:54:56;;;;;;;29.27;12.73;;;6.10;99.90;;;;;;5013159;28;20033;-86
2022/11/17 03:57:41;;;;;;;36.85;14.68;;;6.00;99.90;;;;;;4996904;28;20064;-86
2022/11/17 04:00:10;;;;;;;29.60;14.40;;;6.00;99.90;;;;;;5015974;28;20128;-84
2022/11/17 04:02:54;;;;;;;31.23;13.20;;;6.10;99.90;;;;;;5016830;28;20128;-86
2022/11/17 04:05:20;;;;;;;30.23;14.02;;;6.10;99.90;;;;;;5015737;28;20091;-86
2022/11/17 04:07:47;;;;;;;34.03;14.63;;;6.00;99.90;;;;;;5016758;28;20086;-84
2022/11/17 04:10:16;;;;;;;31.92;13.93;;;6.00;99.90;;;;;;5013256;28;20030;-84
2022/11/17 04:18:12;;;;;;;29.30;14.10;;;6.00;99.90;;;;;;5005656;28;20044;-84
2022/11/17 04:20:37;;;;;;;30.00;14.95;;;6.10;99.90;;;;;;5021083;28;20033;-85
2022/11/17 04:23:08;;;;;;;29.55;14.75;;;6.10;99.90;;;;;;5013143;28;20560;-84
2022/11/17 04:28:37;;;;;;;30.63;14.77;;;6.10;99.90;;;;;;5016258;28;20034;-85
2022/11/17 04:31:09;;;;;;;32.05;14.35;;;6.10;99.90;;;;;;5029769;28;20021;-84
2022/11/17 04:33:36;;;;;;;30.38;14.18;;;6.10;99.90;;;;;;5015586;28;20039;-84
2022/11/17 04:36:03;;;;;;;26.88;12.27;;;6.10;99.90;;;;;;5032154;28;20107;-85
2022/11/17 04:38:29;;;;;;;32.40;13.52;;;6.10;99.90;;;;;;5012764;28;20034;-84
2022/11/17 04:43:47;;;;;;;31.23;14.05;;;6.10;99.90;;;;;;5049795;28;20032;-85
2022/11/17 04:46:14;;;;;;;29.98;13.13;;;6.10;99.90;;;;;;4996129;28;20030;-85
2022/11/17 04:48:40;;;;;;;27.67;12.93;;;6.10;99.90;;;;;;5032376;28;20540;-85
2022/11/17 04:51:09;;;;;;;29.05;12.25;;;6.00;99.90;;;;;;5012582;28;20038;-86
2022/11/17 04:53:35;;;;;;;25.85;12.18;;;6.10;99.90;;;;;;5024914;28;20440;-84
2022/11/17 04:56:02;;;;;;;29.55;12.70;;;6.10;99.90;;;;;;5015580;28;20033;-84
2022/11/17 04:58:28;;;;;;;26.10;12.75;;;6.00;99.90;;;;;;5015816;28;20040;-84
2022/11/17 05:00:54;;;;;;;25.65;11.98;;;6.00;99.90;;;;;;5009108;28;20586;-84
2022/11/17 05:03:20;;;;;;;26.83;12.63;;;6.00;99.90;;;;;;4995722;28;20045;-84
2022/11/17 05:05:47;;;;;;;26.55;12.18;;;6.00;99.90;;;;;;4997021;28;20502;-84
2022/11/17 05:08:13;;;;;;;27.70;12.93;;;6.00;99.90;;;;;;5028780;28;20041;-83
2022/11/17 05:13:25;;;;;;;25.73;13.05;;;6.00;99.90;;;;;;5017483;28;20037;-84
2022/11/17 05:18:40;;;;;;;27.33;12.63;;;6.10;99.90;;;;;;5028375;28;20651;-84
2022/11/17 05:21:09;;;;;;;24.08;11.57;;;6.10;99.90;;;;;;5025313;28;20037;-84
2022/11/17 05:23:53;;;;;;;27.42;11.82;;;6.10;99.90;;;;;;5015297;28;20057;-84
2022/11/17 05:26:24;;;;;;;22.83;12.10;;;6.10;99.90;;;;;;5027886;28;20029;-84
2022/11/17 05:28:50;;;;;;;24.33;12.18;;;6.00;99.90;;;;;;5016965;28;20037;-83
2022/11/17 05:31:16;;;;;;;23.48;11.98;;;6.00;99.90;;;;;;5030874;28;20029;-84
2022/11/17 05:33:42;;;;;;;26.05;12.55;;;6.00;99.90;;;;;;5014491;28;20561;-84
2022/11/17 05:36:09;;;;;;;24.83;12.48;;;6.00;99.90;;;;;;5015167;28;20107;-85
2022/11/17 05:38:35;;;;;;;30.35;13.25;;;6.00;99.90;;;;;;5010843;28;20034;-84
2022/11/17 05:41:01;;;;;;;26.40;12.80;;;6.00;99.90;;;;;;5026941;28;20094;-84
2022/11/17 05:43:27;;;;;;;24.98;12.82;;;6.00;99.90;;;;;;4998355;28;20124;-84
2022/11/17 05:45:53;;;;;;;28.20;14.07;;;6.00;99.90;;;;;;5015238;28;20048;-83
2022/11/17 05:48:19;;;;;;;27.83;13.35;;;6.00;99.90;;;;;;5032174;28;20029;-84
2022/11/17 05:51:05;;;;;;;30.45;14.20;;;6.00;99.90;;;;;;5021699;28;20452;-83
2022/11/17 05:53:32;;;;;;;27.92;12.55;;;6.00;99.90;;;;;;5004124;28;20123;-84
2022/11/17 05:56:29;;;;;;;28.05;13.30;;;6.00;99.90;;;;;;4978758;28;20053;-84
2022/11/17 05:59:06;;;;;;;29.42;13.32;;;6.00;99.90;;;;;;5027600;28;20686;-86
2022/11/17 06:01:35;;;;;;;27.65;13.43;;;6.00;99.90;;;;;;5011348;28;20033;-85
2022/11/17 06:04:03;;;;;;;25.17;12.52;;;6.00;99.90;;;;;;4988950;28;20056;-84
2022/11/17 06:06:29;;;;;;;25.98;12.80;;;6.00;99.90;;;;;;5005965;28;20033;-84
2022/11/17 06:08:55;;;;;;;28.38;14.00;;;6.00;99.90;;;;;;5031273;28;20592;-84
2022/11/17 06:11:21;;;;;;;28.38;13.40;;;6.00;99.90;;;;;;5016748;28;20498;-84
2022/11/17 06:13:47;;;;;;;29.15;13.45;;;6.00;99.90;;;;;;4981888;28;20064;-85
2022/11/17 06:16:17;;;;;;;27.00;12.25;;;6.00;99.90;;;;;;5003752;28;20041;-83
2022/11/17 06:18:53;;;;;;;27.33;13.57;;;6.00;99.90;;;;;;4979373;28;20033;-84
2022/11/17 06:21:19;;;;;;;26.98;13.45;;;6.10;99.90;;;;;;5029530;28;20099;-84
2022/11/17 06:23:46;;;;;;;27.38;13.32;;;6.10;99.90;;;;;;4997436;28;20037;-84
2022/11/17 06:26:13;;;;;;;28.13;14.30;;;6.10;99.90;;;;;;5005514;28;20044;-83
2022/11/17 06:28:42;;;;;;;24.75;13.82;;;6.10;99.90;;;;;;4978197;28;20038;-84
2022/11/17 06:31:08;;;;;;;26.73;13.65;;;6.10;99.90;;;;;;4986027;28;20560;-84
2022/11/17 06:33:36;;;;;;;27.75;12.90;;;6.10;99.90;;;;;;4994362;28;20116;-84
2022/11/17 06:36:04;;;;;;;27.52;12.73;;;6.10;99.90;;;;;;5003775;28;20033;-85
2022/11/17 06:38:32;;;;;;;27.10;12.38;;;6.10;99.90;;;;;;5005919;28;20026;-86
2022/11/17 06:40:58;;;;;;;29.17;12.75;;;6.10;99.90;;;;;;5013958;28;20046;-85
2022/11/17 06:43:23;;;;;;;27.42;12.70;;;6.10;99.90;;;;;;4994083;28;20667;-84
2022/11/17 06:45:49;;;;;;;24.80;12.65;;;6.10;99.90;;;;;;5006016;28;20056;-86
2022/11/17 06:48:17;;;;;;;24.42;11.88;;;6.10;99.90;;;;;;4994905;28;20541;-86
2022/11/17 06:50:43;;;;;;;28.17;11.98;;;6.10;99.90;;;;;;5013483;28;20017;-86
2022/11/17 06:53:11;;;;;;;22.88;11.70;;;6.10;99.90;;;;;;5026116;28;20097;-85
2022/11/17 06:55:37;;;;;;;26.27;12.30;;;6.00;99.90;;;;;;5014775;28;20120;-85
2022/11/17 06:58:05;;;;;;;30.10;13.07;;;6.00;99.90;;;;;;5014407;28;20038;-86
2022/11/17 07:00:33;;;;;;;25.27;12.32;;;6.00;99.90;;;;;;5000847;28;20037;-83
2022/11/17 07:03:08;;;;;;;25.98;12.70;;;6.00;99.90;;;;;;5034484;28;20429;-84
2022/11/17 07:05:35;;;;;;;24.27;11.77;;;6.00;99.90;;;;;;5014442;28;20043;-83
2022/11/17 07:08:03;;;;;;;24.10;12.10;;;6.10;99.90;;;;;;5014963;28;20034;-84
2022/11/17 07:10:30;;;;;;;24.95;12.20;;;6.10;99.90;;;;;;5012787;28;20468;-84
2022/11/17 07:12:57;;;;;;;26.02;12.52;;;6.10;99.90;;;;;;4984677;28;20033;-84
2022/11/17 07:15:23;;;;;;;23.63;12.05;;;6.10;99.90;;;;;;5015867;28;20080;-85
2022/11/17 07:17:49;;;;;;;25.33;11.30;;;6.20;99.90;;;;;;5000310;28;20124;-86
2022/11/17 07:20:16;;;;;;;22.15;11.10;;;6.20;99.90;;;;;;5017162;28;20115;-88
2022/11/17 07:22:42;;;;;;;20.60;10.93;;;6.10;99.90;;;;;;5024512;28;20037;-84
2022/11/17 07:25:09;;;;;;;20.80;10.50;;;6.20;99.90;;;;;;5015999;28;20036;-86
2022/11/17 07:27:34;;;;;;;23.10;10.82;;;6.10;99.90;;;;;;5017379;28;20025;-87
2022/11/17 07:30:01;;;;;;;22.83;10.70;;;6.10;99.90;;;;;;5030532;28;20059;-85
2022/11/17 07:32:26;;;;;;;19.98;10.23;;;6.00;99.90;;;;;;5032934;28;20084;-87
2022/11/17 07:34:52;;;;;;;20.23;10.20;;;6.10;99.90;;;;;;5016273;28;20398;-87
2022/11/17 07:37:18;;;;;;;20.02;9.73;;;6.10;99.90;;;;;;4997820;28;20166;-86
2022/11/17 07:39:44;;;;;;;19.17;8.93;;;6.10;99.90;;;;;;5015148;28;20062;-86
2022/11/17 07:42:10;;;;;;;19.75;9.15;;;6.10;99.90;;;;;;5013634;28;20034;-87
2022/11/17 07:44:35;;;;;;;16.40;9.05;;;6.10;99.90;;;;;;4997559;28;20044;-86
2022/11/17 07:47:01;;;;;;;16.23;8.68;;;6.10;99.90;;;;;;5013023;28;20112;-86
2022/11/17 07:49:27;;;;;;;17.75;8.75;;;6.10;99.90;;;;;;5031417;28;20033;-88
2022/11/17 07:51:53;;;;;;;16.35;8.93;;;6.20;99.90;;;;;;5009609;28;20040;-85
2022/11/17 07:54:19;;;;;;;17.70;8.35;;;6.10;99.90;;;;;;4998956;28;20025;-86
2022/11/17 07:56:45;;;;;;;18.05;7.70;;;6.20;99.90;;;;;;5014612;28;20413;-86
2022/11/17 07:59:11;;;;;;;17.55;8.30;;;6.10;99.90;;;;;;5017325;28;20132;-85
2022/11/17 08:01:38;;;;;;;16.48;8.60;;;6.20;99.90;;;;;;5003622;28;20113;-85
2022/11/17 08:04:04;;;;;;;14.95;7.38;;;6.10;99.90;;;;;;4996880;28;20037;-86
2022/11/17 08:06:30;;;;;;;15.93;7.97;;;6.20;99.90;;;;;;5006219;28;20072;-87
2022/11/17 08:08:56;;;;;;;13.77;7.65;;;6.20;99.90;;;;;;5033715;28;20072;-86
2022/11/17 08:11:22;;;;;;;16.30;7.18;;;6.20;99.90;;;;;;5023043;28;20120;-85
2022/11/17 08:13:49;;;;;;;14.18;7.30;;;6.20;99.90;;;;;;5032526;28;20021;-86
2022/11/17 08:16:15;;;;;;;14.50;7.35;;;6.20;99.90;;;;;;5016072;28;20033;-87
2022/11/17 08:18:41;;;;;;;13.23;7.15;;;6.30;99.90;;;;;;5001296;28;20490;-85
2022/11/17 08:21:12;;;;;;;11.52;6.47;;;6.30;99.90;;;;;;5013971;28;20526;-87
2022/11/17 08:23:39;;;;;;;12.20;5.82;;;6.30;99.90;;;;;;4981796;28;20524;-86
2022/11/17 08:26:07;;;;;;;10.35;5.20;;;6.30;99.90;;;;;;5005994;28;20076;-87
2022/11/17 08:28:33;;;;;;;9.38;5.55;;;6.30;99.90;;;;;;4997391;28;20021;-85
2022/11/17 08:31:02;;;;;;;9.40;5.72;;;6.30;99.90;;;;;;5010385;28;20453;-86
2022/11/17 08:33:28;;;;;;;8.95;5.07;;;6.30;99.90;;;;;;5023077;28;20025;-87
2022/11/17 08:35:58;;;;;;;9.18;5.57;;;6.30;99.90;;;;;;5016222;28;20406;-85
2022/11/17 08:38:27;;;;;;;10.65;5.28;;;6.20;99.90;;;;;;4999962;28;20033;-86
2022/11/17 08:40:58;;;;;;;9.45;5.35;;;6.30;99.90;;;;;;5012785;28;20084;-87
2022/11/17 08:43:24;;;;;;;8.82;5.10;;;6.30;99.90;;;;;;5027827;28;20057;-86
2022/11/17 08:45:50;;;;;;;11.75;5.28;;;6.30;99.90;;;;;;5012614;28;20431;-85
2022/11/17 08:48:15;;;;;;;9.02;5.13;;;6.30;99.90;;;;;;5006242;28;20429;-86
2022/11/17 08:50:41;;;;;;;8.95;5.13;;;6.30;99.90;;;;;;5012213;28;20045;-86
2022/11/17 08:53:16;;;;;;;8.43;5.00;;;6.30;99.90;;;;;;5012322;28;20478;-85
2022/11/17 08:55:42;;;;;;;11.73;7.13;;;6.30;99.90;;;;;;5027174;28;20715;-86
2022/11/17 08:58:09;;;;;;;10.90;6.93;;;6.40;99.90;;;;;;5012080;28;20511;-86
2022/11/17 09:00:35;;;;;;;14.68;8.68;;;6.40;99.90;;;;;;5031784;28;20633;-87
2022/11/17 09:03:05;;;;;;;16.13;9.52;;;6.40;99.90;;;;;;5015400;28;20037;-86
2022/11/17 09:05:34;;;;;;;16.88;10.32;;;6.40;99.90;;;;;;5028231;28;20434;-86
2022/11/17 09:08:00;;;;;;;18.52;11.13;;;6.40;99.90;;;;;;4997127;28;20095;-86
2022/11/17 09:10:26;;;;;;;19.05;11.20;;;6.50;99.90;;;;;;5030298;28;20034;-86
2022/11/17 09:12:55;;;;;;;18.75;10.93;;;6.50;99.90;;;;;;4998823;28;20056;-88
2022/11/17 09:15:21;;;;;;;17.63;10.05;;;6.60;99.90;;;;;;4994122;28;20068;-86
2022/11/17 09:17:47;;;;;;;17.55;10.95;;;6.60;99.90;;;;;;4961424;28;20197;-86
2022/11/17 09:20:14;;;;;;;22.05;10.90;;;6.60;99.90;;;;;;4995544;28;20049;-85
2022/11/17 09:22:40;;;;;;;19.15;10.52;;;6.60;99.90;;;;;;4998354;28;20485;-87
2022/11/17 09:25:06;;;;;;;16.88;9.82;;;6.60;99.90;;;;;;4982179;28;20139;-86
2022/11/17 09:27:32;;;;;;;19.65;10.38;;;6.60;99.90;;;;;;5028010;28;20113;-86
2022/11/17 09:29:58;;;;;;;16.17;9.70;;;6.70;99.90;;;;;;5018920;28;20170;-86
2022/11/17 09:32:24;;;;;;;19.40;9.82;;;6.70;99.90;;;;;;5011245;28;20113;-86
2022/11/17 09:34:49;;;;;;;11.15;6.80;;;6.70;99.90;;;;;;4988778;28;20033;-86
2022/11/17 09:37:15;;;;;;;11.13;7.20;;;6.70;99.90;;;;;;5012865;28;20036;-87
2022/11/17 09:39:41;;;;;;;11.20;7.15;;;6.80;99.90;;;;;;5011893;28;20034;-86
2022/11/17 09:42:13;;;;;;;10.02;5.25;;;6.80;99.90;;;;;;5014205;28;20063;-89
2022/11/17 09:44:44;;;;;;;7.55;4.35;;;6.80;99.90;;;;;;5011632;28;20844;-86
2022/11/17 09:47:35;;;;;;;7.35;4.13;;;6.80;99.90;;;;;;5004190;28;20116;-87
2022/11/17 09:50:04;;;;;;;6.22;4.00;;;6.80;99.90;;;;;;5033442;28;20536;-87
2022/11/17 09:53:15;;;;;;;6.88;4.35;;;6.90;99.90;;;;;;5026466;28;20021;-86
2022/11/17 09:55:54;;;;;;;7.07;3.63;;;6.90;99.90;;;;;;5024557;28;20493;-87
2022/11/17 09:58:32;;;;;;;4.80;3.22;;;6.90;99.90;;;;;;5015122;28;20040;-88
2022/11/17 10:00:59;;;;;;;4.07;2.63;;;7.00;99.90;;;;;;5014809;28;20035;-87
2022/11/17 10:03:35;;;;;;;4.28;2.92;;;7.00;99.90;;;;;;4996187;28;20028;-84
2022/11/17 10:06:10;;;;;;;5.25;2.85;;;7.10;99.90;;;;;;5017693;28;20037;-85
2022/11/17 10:08:38;;;;;;;3.00;2.67;;;7.20;99.90;;;;;;5014998;28;20060;-85
2022/11/17 10:11:31;;;;;;;4.88;2.95;;;7.20;99.90;;;;;;5014396;28;20497;-88
2022/11/17 10:14:18;;;;;;;3.78;2.72;;;7.20;99.90;;;;;;5030174;28;20033;-85
2022/11/17 10:16:54;;;;;;;3.65;2.50;;;7.40;99.90;;;;;;5028569;28;20032;-87
2022/11/17 10:19:27;;;;;;;4.13;2.40;;;7.50;99.90;;;;;;5011580;28;20041;-85
2022/11/17 10:22:02;;;;;;;3.05;2.50;;;7.50;99.90;;;;;;5033601;28;20102;-85
2022/11/17 10:24:49;;;;;;;3.35;2.47;;;7.50;99.90;;;;;;5022342;28;20029;-86
2022/11/17 10:27:22;;;;;;;2.95;2.08;;;7.50;99.90;;;;;;5030764;28;20041;-84
2022/11/17 10:30:00;;;;;;;3.90;2.28;;;7.50;99.90;;;;;;5013963;28;20131;-85
2022/11/17 10:32:31;;;;;;;3.42;2.53;;;7.50;99.90;;;;;;5023882;28;20118;-86
2022/11/17 10:35:22;;;;;;;2.60;2.10;;;7.60;99.90;;;;;;5014294;28;20040;-85
2022/11/17 10:38:15;;;;;;;2.85;2.13;;;7.50;99.90;;;;;;5014084;28;20099;-84
2022/11/17 10:40:41;;;;;;;4.38;3.30;;;7.60;99.90;;;;;;5010126;28;20159;-85
2022/11/17 10:43:13;;;;;;;5.07;3.67;;;7.60;99.90;;;;;;5001501;28;20033;-85
2022/11/17 10:45:44;;;;;;;5.65;3.90;;;7.60;99.90;;;;;;5029623;28;20036;-85
2022/11/17 10:48:16;;;;;;;5.82;4.80;;;7.60;99.90;;;;;;5027168;28;20174;-84
2022/11/17 10:50:57;;;;;;;6.22;4.93;;;7.60;99.90;;;;;;5014565;28;20029;-83
2022/11/17 10:53:35;;;;;;;6.68;5.28;;;7.70;99.90;;;;;;5010653;28;20099;-85
2022/11/17 10:56:20;;;;;;;7.05;4.80;;;7.70;99.90;;;;;;5017528;28;20079;-83
2022/11/17 10:58:58;;;;;;;5.95;4.28;;;7.80;99.90;;;;;;5030516;28;20064;-84
2022/11/17 11:01:29;;;;;;;6.03;4.25;;;7.80;99.90;;;;;;5013371;28;20060;-85
2022/11/17 11:03:55;;;;;;;4.43;3.40;;;7.90;99.90;;;;;;5013605;28;20065;-85
2022/11/17 11:06:28;;;;;;;5.60;3.47;;;8.10;99.90;;;;;;4977500;28;20033;-85
2022/11/17 11:09:10;;;;;;;4.20;3.55;;;8.10;99.90;;;;;;5014615;28;20460;-85
2022/11/17 11:11:43;;;;;;;3.97;3.15;;;8.10;99.90;;;;;;5018906;28;20044;-84
2022/11/17 11:14:39;;;;;;;4.25;3.53;;;8.00;99.90;;;;;;5065811;28;20036;-84
2022/11/17 11:17:12;;;;;;;5.38;3.80;;;8.00;99.90;;;;;;5029912;28;20482;-85
2022/11/17 11:19:40;;;;;;;3.92;3.30;;;8.10;99.90;;;;;;5013924;28;20726;-84
2022/11/17 11:22:25;;;;;;;4.57;3.70;;;8.10;99.90;;;;;;4996858;28;20036;-85
2022/11/17 11:25:00;;;;;;;6.75;4.43;;;8.10;99.90;;;;;;5039305;28;20048;-85
2022/11/17 11:27:41;;;;;;;5.68;4.22;;;8.10;99.90;;;;;;5029543;28;20555;-86
2022/11/17 11:30:12;;;;;;;5.70;4.60;;;8.10;99.90;;;;;;5037345;28;20120;-85
2022/11/17 11:32:57;;;;;;;8.90;4.80;;;8.20;99.90;;;;;;5009832;28;20064;-86
2022/11/17 11:35:34;;;;;;;6.35;4.70;;;8.20;99.90;;;;;;5024855;28;20044;-85
2022/11/17 11:38:12;;;;;;;6.38;4.50;;;8.30;99.90;;;;;;5036819;28;20606;-85
2022/11/17 11:40:41;;;;;;;6.43;4.90;;;8.30;99.90;;;;;;5033268;28;20464;-86
2022/11/17 11:43:34;;;;;;;5.85;4.30;;;8.30;99.90;;;;;;5032747;28;20044;-85
2022/11/17 11:46:21;;;;;;;5.57;4.97;;;8.20;99.90;;;;;;5032907;28;20087;-85
2022/11/17 11:48:50;;;;;;;6.50;5.30;;;8.20;99.90;;;;;;5029876;28;20035;-86
2022/11/17 11:51:23;;;;;;;9.35;5.50;;;8.20;99.90;;;;;;5006292;28;20073;-85
2022/11/17 11:53:51;;;;;;;6.60;5.25;;;8.20;99.90;;;;;;5017046;28;20428;-86
2022/11/17 11:56:23;;;;;;;7.18;5.38;;;8.30;99.90;;;;;;5033036;28;20028;-85
2022/11/17 11:59:04;;;;;;;7.65;5.53;;;8.30;99.90;;;;;;5033599;28;20112;-85
2022/11/17 12:01:41;;;;;;;9.85;5.90;;;8.40;99.90;;;;;;5033395;28;20033;-85
2022/11/17 12:04:32;;;;;;;7.03;5.32;;;8.50;99.90;;;;;;5043362;28;20052;-85
2022/11/17 12:07:10;;;;;;;6.78;5.28;;;8.60;99.90;;;;;;5029804;28;20033;-85
2022/11/17 12:09:41;;;;;;;7.03;5.18;;;8.60;99.90;;;;;;5017724;28;20041;-85
2022/11/17 12:12:21;;;;;;;7.50;5.55;;;8.60;99.90;;;;;;5015939;28;20072;-86
2022/11/17 12:15:07;;;;;;;7.50;5.00;;;8.50;99.90;;;;;;5025619;28;20680;-85
2022/11/17 12:17:33;;;;;;;;;;;8.50;99.90;;;;;;5017047;28;20034;-86
2022/11/17 12:20:01;;;;;;;9.57;5.68;;;8.40;99.90;;;;;;4996421;28;20416;-85
2022/11/17 12:22:31;;;;;;;8.68;6.05;;;8.40;99.90;;;;;;5030189;28;20033;-86
2022/11/17 12:25:35;;;;;;;7.47;6.18;;;8.40;99.90;;;;;;5016061;28;20037;-86
2022/11/17 12:28:26;;;;;;;10.52;6.40;;;8.40;99.90;;;;;;5020032;28;20458;-85
2022/11/17 12:30:55;;;;;;;7.55;5.47;;;8.30;99.90;;;;;;5022125;28;20025;-85
2022/11/17 12:33:22;;;;;;;9.95;7.00;;;8.40;99.90;;;;;;5014549;28;20041;-85
2022/11/17 12:36:15;;;;;;;10.95;6.40;;;8.50;99.90;;;;;;5022860;28;20032;-85
2022/11/17 12:38:41;;;;;;;13.07;9.45;;;8.60;99.90;;;;;;5029411;28;20036;-85
2022/11/17 12:41:12;;;;;;;8.45;6.55;;;8.70;99.90;;;;;;5017253;28;20053;-85
2022/11/17 12:43:41;;;;;;;9.05;6.70;;;8.70;99.90;;;;;;5002067;28;20076;-85
2022/11/17 12:46:25;;;;;;;8.10;6.55;;;8.70;99.90;;;;;;5012101;28;20063;-85
2022/11/17 12:49:14;;;;;;;10.20;6.78;;;8.70;99.90;;;;;;4996127;28;20083;-84
2022/11/17 12:51:58;;;;;;;11.35;7.82;;;8.70;99.90;;;;;;5004342;28;20053;-85
2022/11/17 12:54:35;;;;;;;11.75;7.90;;;8.80;99.90;;;;;;5025512;28;20025;-85
2022/11/17 12:57:12;;;;;;;12.23;8.32;;;8.70;99.90;;;;;;5043865;28;20040;-84
2022/11/17 13:00:13;;;;;;;12.10;7.55;;;8.70;99.90;;;;;;5031247;28;20030;-85
2022/11/17 13:02:56;;;;;;;11.55;8.13;;;8.70;99.90;;;;;;5030104;28;20527;-86
2022/11/17 13:05:25;;;;;;;10.05;7.05;;;8.60;99.90;;;;;;5012134;28;20120;-86
2022/11/17 13:08:16;;;;;;;9.40;7.28;;;8.60;99.90;;;;;;5011541;28;20505;-86
2022/11/17 13:10:42;;;;;;;8.95;6.20;;;8.50;99.90;;;;;;5012916;28;20048;-87
2022/11/17 13:13:12;;;;;;;10.88;6.75;;;8.40;99.90;;;;;;5029402;28;20033;-88
2022/11/17 13:15:41;;;;;;;10.40;6.93;;;8.40;99.90;;;;;;5014582;28;20051;-88
2022/11/17 13:18:21;;;;;;;10.05;8.10;;;8.40;99.90;;;;;;5007215;28;20030;-87
2022/11/17 13:20:48;;;;;;;14.13;7.45;;;8.40;99.90;;;;;;5002638;28;20484;-88
2022/11/17 13:23:25;;;;;;;8.68;6.20;;;8.40;99.90;;;;;;4982280;28;20430;-88
2022/11/17 13:26:18;;;;;;;10.00;6.32;;;8.40;99.90;;;;;;5009385;28;20033;-88
2022/11/17 13:28:45;;;;;;;6.85;5.07;;;8.40;99.90;;;;;;4976478;28;20120;-87
2022/11/17 13:31:22;;;;;;;7.63;4.45;;;8.40;99.90;;;;;;5016513;28;20079;-89